WetterOnline ( https://www.wetteronline.de )

Wetter aktuell Rubihorn

Aktuelles Wetter: Oberstdorf (812m)

6-stündlich | Neueste Meldungen
Ortszeit Temperatur Wetter
So, 25.07. 20:00 18.1° C wolkig
So, 25.07. 14:00 19.9° C bedeckt
So, 25.07. 8:00 15.9° C bewölkt
So, 25.07. 2:00 14.2° C wolkig
Sa, 24.07. 20:00 15.9° C leichter Regen
Sa, 24.07. 14:00 26.0° C fast wolkenlos
Sa, 24.07. 8:00 16.1° C wolkig
Sa, 24.07. 2:00 13.6° C bewölkt
Ortszeit Temperatur Wetter
So, 25.07. 20:30 17.6° C wolkig
So, 25.07. 20:20 17.6° C wolkig
So, 25.07. 20:10 17.7° C leicht bewölkt
So, 25.07. 20:00 18.1° C wolkig
So, 25.07. 19:50 18.1° C wolkig
So, 25.07. 19:40 17.8° C wolkig
So, 25.07. 19:30 18.3° C wolkig
So, 25.07. 19:00 18.1° C bewölkt
So, 25.07. 18:30 17.5° C bedeckt
So, 25.07. 18:00 17.6° C bedeckt
So, 25.07. 17:30 17.7° C bedeckt
Ortszeit Relative Feuchte Sichtweite
So, 25.07. 20:00 76% >70 km
So, 25.07. 14:00 72% 50 km
So, 25.07. 8:00 93% 30 km
So, 25.07. 2:00 97% 20 km
Sa, 24.07. 20:00 82% 30 km
Sa, 24.07. 14:00 54% 55 km
Sa, 24.07. 8:00 85% 35 km
Sa, 24.07. 2:00 90% 30 km
Ortszeit Relative Feuchte Sichtweite
So, 25.07. 20:30 80% 65 km
So, 25.07. 20:20 80% -
So, 25.07. 20:10 80% -
So, 25.07. 20:00 76% >70 km
So, 25.07. 19:50 76% -
So, 25.07. 19:40 79% -
So, 25.07. 19:30 74% >70 km
So, 25.07. 19:00 77% >70 km
So, 25.07. 18:30 78% >70 km
So, 25.07. 18:00 77% >70 km
So, 25.07. 17:30 74% >70 km
Ortszeit Niederschlagsmenge Niederschlagsart
So, 25.07. 20:00 0.2 l/m2 in 12 Std. Regen
So, 25.07. 14:00 0.2 l/m2 in 6 Std. Regen
So, 25.07. 8:00 0.2 l/m2 in 12 Std. Regen
So, 25.07. 2:00 0.2 l/m2 in 6 Std. Regen
Sa, 24.07. 20:00 0.7 l/m2 in 12 Std. Regen
Sa, 24.07. 14:00 0.1 l/m2 in 6 Std. Regen
Sa, 24.07. 8:00 0.1 l/m2 in 12 Std. Regen
Sa, 24.07. 2:00 0.0 l/m2 in 6 Std. -
Ortszeit Niederschlagsmenge Niederschlagsart
So, 25.07. 20:30 0.0 l/m2 in 1 Std. -
So, 25.07. 20:20 keine Meldung -
So, 25.07. 20:10 keine Meldung -
So, 25.07. 20:00 0.0 l/m2 in 1 Std. Regen
So, 25.07. 19:50 keine Meldung -
So, 25.07. 19:40 keine Meldung -
So, 25.07. 19:30 0.0 l/m2 in 1 Std. -
So, 25.07. 19:00 0.1 l/m2 in 1 Std. Regen
So, 25.07. 18:30 0.0 l/m2 in 1 Std. -
So, 25.07. 18:00 0.0 l/m2 in 1 Std. -
So, 25.07. 17:30 0.0 l/m2 in 1 Std. -
Ortszeit Stärke Spitze Richtung
km/h Bft. km/h Grad Sektor
So, 25.07. 20:00 9 2 31 170° S
So, 25.07. 14:00 4 1 14 10° N
So, 25.07. 8:00 4 1 14 160° S
So, 25.07. 2:00 4 1 22 160° S
Sa, 24.07. 20:00 7 2 58 50° NO
Sa, 24.07. 14:00 17 3 31 350° N
Sa, 24.07. 8:00 0 0 14 - -
Sa, 24.07. 2:00 7 2 18 170° S
Ortszeit Stärke Spitze Richtung
km/h Bft. km/h Grad Sektor
So, 25.07. 20:30 9 2 13 140° SO
So, 25.07. 20:20 9 2 - 140° SO
So, 25.07. 20:10 9 2 - 140° SO
So, 25.07. 20:00 9 2 19 170° S
So, 25.07. 19:50 9 2 - 170° S
So, 25.07. 19:40 7 2 - 150° SO
So, 25.07. 19:30 11 2 18 180° S
So, 25.07. 19:00 13 3 20 150° SO
So, 25.07. 18:30 11 2 14 140° SO
So, 25.07. 18:00 9 2 30 330° NW
So, 25.07. 17:30 18 3 29 310° NW
Ortszeit Untergrenze Bedeckung Gattung
total tief tief mittel hoch
So, 25.07. 20:00 2700 m 7/8 3/8 - - -
So, 25.07. 14:00 3600 m 8/8 8/8 - - -
So, 25.07. 8:00 1140 m 8/8 6/8 - - -
So, 25.07. 2:00 3000 m 8/8 3/8 - - -
Sa, 24.07. 20:00 1080 m 8/8 7/8 - - -
Sa, 24.07. 14:00 3600 m 1/8 1/8 - - -
Sa, 24.07. 8:00 3600 m 6/8 6/8 - - -
Sa, 24.07. 2:00 3600 m 8/8 4/8 - - -
Ortszeit Bedeckungsgrad in Achtel und Wolkenuntergrenze
So, 25.07. 20:30 6(3300m)
So, 25.07. 20:20 6(3300m)
So, 25.07. 20:10 1(2700m) 6(3300m)
So, 25.07. 20:00 3(2700m) 7(3300m)
So, 25.07. 19:50 3(2700m) 7(3300m)
So, 25.07. 19:40 6(3000m)
So, 25.07. 19:30 4(1500m) 7(3300m)
So, 25.07. 19:00 7(1440m) 7(3300m)
So, 25.07. 18:30 4(840m) 8(1230m) 8(3000m)
So, 25.07. 18:00 8(870m)
So, 25.07. 17:30 1(630m) 6(810m) 8(1110m)
Ortszeit Stationsdruck (hPa) Tendenz (hPa in 3 Std.)
So, 25.07. 20:00 921 + 0,5
So, 25.07. 14:00 919 - 0,5
So, 25.07. 8:00 921 - 0,3
So, 25.07. 2:00 920 - 1,3
Sa, 24.07. 20:00 922 + 2,3
Sa, 24.07. 14:00 920 - 2,4
Sa, 24.07. 8:00 920 - 0,5
Sa, 24.07. 2:00 922 - 0,8
Ortszeit Stationsdruck (hPa) Tendenz (hPa in 3 Std.)
So, 25.07. 20:30 921 - 0,5
So, 25.07. 20:20 921 keine Meldung
So, 25.07. 20:10 921 keine Meldung
So, 25.07. 20:00 921 + 0,5
So, 25.07. 19:50 921 keine Meldung
So, 25.07. 19:40 921 keine Meldung
So, 25.07. 19:30 921 + 1,0
So, 25.07. 19:00 921 + 1,4
So, 25.07. 18:30 921 + 1,9
So, 25.07. 18:00 921 + 2,1
So, 25.07. 17:30 922 + 1,9
Ortszeit Schneehöhe (cm)
So, 25.07. 20:00 -
So, 25.07. 14:00 -
So, 25.07. 8:00 -
So, 25.07. 2:00 -
Sa, 24.07. 20:00 -
Sa, 24.07. 14:00 -
Sa, 24.07. 8:00 -
Sa, 24.07. 2:00 -
Ortszeit Schneehöhe (cm)
So, 25.07. 20:30 -
So, 25.07. 20:20 -
So, 25.07. 20:10 -
So, 25.07. 20:00 -
So, 25.07. 19:50 -
So, 25.07. 19:40 -
So, 25.07. 19:30 -
So, 25.07. 19:00 -
So, 25.07. 18:30 -
So, 25.07. 18:00 -
So, 25.07. 17:30 -
Link zu dieser Seite / Seite empfehlen

Das Wetter in ...